sensor_id;sensor_type;location;lat;lon;timestamp;pressure;altitude;pressure_sealevel;temperature;humidity
40592;BME280;26301;42.832;23.918;2024-03-08T00:00:33;93239.25;;;2.76;100.00
40592;BME280;26301;42.832;23.918;2024-03-08T00:02:58;93244.84;;;2.86;100.00
40592;BME280;26301;42.832;23.918;2024-03-08T00:05:26;93237.56;;;2.83;100.00
40592;BME280;26301;42.832;23.918;2024-03-08T00:07:51;93242.47;;;2.85;100.00
40592;BME280;26301;42.832;23.918;2024-03-08T00:10:18;93242.88;;;2.88;100.00
40592;BME280;26301;42.832;23.918;2024-03-08T00:12:46;93185.78;;;2.61;100.00
40592;BME280;26301;42.832;23.918;2024-03-08T00:15:15;93229.16;;;2.89;100.00
40592;BME280;26301;42.832;23.918;2024-03-08T00:17:42;93218.63;;;2.71;100.00
40592;BME280;26301;42.832;23.918;2024-03-08T00:20:09;93212.69;;;2.64;100.00
40592;BME280;26301;42.832;23.918;2024-03-08T00:22:35;93207.41;;;2.65;100.00
40592;BME280;26301;42.832;23.918;2024-03-08T00:25:01;93208.81;;;2.68;100.00
40592;BME280;26301;42.832;23.918;2024-03-08T00:27:27;93189.69;;;2.57;100.00
40592;BME280;26301;42.832;23.918;2024-03-08T00:29:54;93215.28;;;2.70;100.00
40592;BME280;26301;42.832;23.918;2024-03-08T00:32:19;93190.59;;;2.49;100.00
40592;BME280;26301;42.832;23.918;2024-03-08T00:34:45;93194.50;;;2.45;100.00
40592;BME280;26301;42.832;23.918;2024-03-08T00:37:10;93213.81;;;2.61;100.00
40592;BME280;26301;42.832;23.918;2024-03-08T00:39:35;93215.06;;;2.65;100.00
40592;BME280;26301;42.832;23.918;2024-03-08T00:42:01;93179.97;;;2.46;100.00
40592;BME280;26301;42.832;23.918;2024-03-08T00:44:26;93216.66;;;2.73;100.00
40592;BME280;26301;42.832;23.918;2024-03-08T00:46:52;93197.00;;;2.67;100.00
40592;BME280;26301;42.832;23.918;2024-03-08T00:49:18;93190.38;;;2.72;100.00
40592;BME280;26301;42.832;23.918;2024-03-08T00:51:43;93188.25;;;2.76;100.00
40592;BME280;26301;42.832;23.918;2024-03-08T00:54:08;93177.00;;;2.70;100.00
40592;BME280;26301;42.832;23.918;2024-03-08T00:56:34;93192.28;;;2.64;100.00
40592;BME280;26301;42.832;23.918;2024-03-08T00:59:01;93190.34;;;2.66;100.00
40592;BME280;26301;42.832;23.918;2024-03-08T01:01:28;93191.91;;;2.67;100.00
40592;BME280;26301;42.832;23.918;2024-03-08T01:03:53;93206.06;;;2.69;100.00
40592;BME280;26301;42.832;23.918;2024-03-08T01:06:19;93198.22;;;2.71;100.00
40592;BME280;26301;42.832;23.918;2024-03-08T01:08:45;93195.59;;;2.64;100.00
40592;BME280;26301;42.832;23.918;2024-03-08T01:11:13;93205.25;;;2.69;100.00
40592;BME280;26301;42.832;23.918;2024-03-08T01:13:39;93160.59;;;2.51;100.00
40592;BME280;26301;42.832;23.918;2024-03-08T01:16:05;93191.94;;;2.73;100.00
40592;BME280;26301;42.832;23.918;2024-03-08T01:18:30;93174.63;;;2.62;100.00
40592;BME280;26301;42.832;23.918;2024-03-08T01:20:56;93190.63;;;2.78;100.00
40592;BME280;26301;42.832;23.918;2024-03-08T01:23:22;93181.34;;;2.70;100.00
40592;BME280;26301;42.832;23.918;2024-03-08T01:25:48;93153.94;;;2.50;100.00
40592;BME280;26301;42.832;23.918;2024-03-08T01:28:17;93185.09;;;2.74;100.00
40592;BME280;26301;42.832;23.918;2024-03-08T01:30:42;93189.47;;;2.80;100.00
40592;BME280;26301;42.832;23.918;2024-03-08T01:33:08;93156.69;;;2.56;100.00
40592;BME280;26301;42.832;23.918;2024-03-08T01:35:34;93144.91;;;2.48;100.00
40592;BME280;26301;42.832;23.918;2024-03-08T01:37:59;93173.91;;;2.75;100.00
40592;BME280;26301;42.832;23.918;2024-03-08T01:40:25;93168.56;;;2.70;100.00
40592;BME280;26301;42.832;23.918;2024-03-08T01:42:50;93176.63;;;2.73;100.00
40592;BME280;26301;42.832;23.918;2024-03-08T01:45:16;93145.97;;;2.60;100.00
40592;BME280;26301;42.832;23.918;2024-03-08T01:47:41;93166.41;;;2.67;100.00
40592;BME280;26301;42.832;23.918;2024-03-08T01:50:07;93169.72;;;2.67;100.00
40592;BME280;26301;42.832;23.918;2024-03-08T01:52:33;93192.97;;;2.79;100.00
40592;BME280;26301;42.832;23.918;2024-03-08T01:55:02;93193.75;;;2.80;100.00
40592;BME280;26301;42.832;23.918;2024-03-08T01:57:31;93192.41;;;2.84;100.00
40592;BME280;26301;42.832;23.918;2024-03-08T01:59:57;93152.22;;;2.58;100.00
40592;BME280;26301;42.832;23.918;2024-03-08T02:02:22;93172.66;;;2.64;100.00
40592;BME280;26301;42.832;23.918;2024-03-08T02:04:48;93190.78;;;2.76;100.00
40592;BME280;26301;42.832;23.918;2024-03-08T02:07:18;93184.44;;;2.65;100.00
40592;BME280;26301;42.832;23.918;2024-03-08T02:09:43;93191.72;;;2.68;100.00
40592;BME280;26301;42.832;23.918;2024-03-08T02:12:09;93169.66;;;2.54;100.00
40592;BME280;26301;42.832;23.918;2024-03-08T02:14:35;93179.28;;;2.59;100.00
40592;BME280;26301;42.832;23.918;2024-03-08T02:17:02;93167.09;;;2.54;100.00
40592;BME280;26301;42.832;23.918;2024-03-08T02:19:27;93169.97;;;2.44;100.00
40592;BME280;26301;42.832;23.918;2024-03-08T02:21:53;93174.28;;;2.44;100.00
40592;BME280;26301;42.832;23.918;2024-03-08T02:24:19;93165.25;;;2.41;100.00
40592;BME280;26301;42.832;23.918;2024-03-08T02:26:44;93170.50;;;2.40;100.00
40592;BME280;26301;42.832;23.918;2024-03-08T02:29:10;93193.38;;;2.55;100.00
40592;BME280;26301;42.832;23.918;2024-03-08T02:31:35;93163.44;;;2.35;100.00
40592;BME280;26301;42.832;23.918;2024-03-08T02:34:01;93182.94;;;2.49;100.00
40592;BME280;26301;42.832;23.918;2024-03-08T02:36:27;93186.31;;;2.50;100.00
40592;BME280;26301;42.832;23.918;2024-03-08T02:38:52;93198.69;;;2.53;100.00
40592;BME280;26301;42.832;23.918;2024-03-08T02:41:18;93175.44;;;2.41;100.00
40592;BME280;26301;42.832;23.918;2024-03-08T02:43:43;93167.19;;;2.39;100.00
40592;BME280;26301;42.832;23.918;2024-03-08T02:46:10;93191.63;;;2.55;100.00
40592;BME280;26301;42.832;23.918;2024-03-08T02:48:36;93189.84;;;2.56;100.00
40592;BME280;26301;42.832;23.918;2024-03-08T02:51:01;93172.31;;;2.46;100.00
40592;BME280;26301;42.832;23.918;2024-03-08T02:53:27;93184.16;;;2.54;100.00
40592;BME280;26301;42.832;23.918;2024-03-08T02:55:53;93188.28;;;2.55;100.00
40592;BME280;26301;42.832;23.918;2024-03-08T02:58:18;93181.38;;;2.48;100.00
40592;BME280;26301;42.832;23.918;2024-03-08T03:00:44;93199.47;;;2.54;100.00
40592;BME280;26301;42.832;23.918;2024-03-08T03:03:09;93199.41;;;2.47;100.00
40592;BME280;26301;42.832;23.918;2024-03-08T03:05:35;93182.22;;;2.34;100.00
40592;BME280;26301;42.832;23.918;2024-03-08T03:08:00;93184.47;;;2.22;100.00
40592;BME280;26301;42.832;23.918;2024-03-08T03:10:26;93185.66;;;2.20;100.00
40592;BME280;26301;42.832;23.918;2024-03-08T03:12:52;93206.53;;;2.30;100.00
40592;BME280;26301;42.832;23.918;2024-03-08T03:15:18;93202.69;;;2.19;100.00
40592;BME280;26301;42.832;23.918;2024-03-08T03:17:50;93187.34;;;1.91;100.00
40592;BME280;26301;42.832;23.918;2024-03-08T03:20:19;93205.19;;;2.13;100.00
40592;BME280;26301;42.832;23.918;2024-03-08T03:23:14;93184.31;;;1.81;100.00
40592;BME280;26301;42.832;23.918;2024-03-08T03:25:39;93217.81;;;1.99;100.00
40592;BME280;26301;42.832;23.918;2024-03-08T03:28:07;93212.72;;;1.99;100.00
40592;BME280;26301;42.832;23.918;2024-03-08T03:30:32;93219.56;;;1.99;100.00
40592;BME280;26301;42.832;23.918;2024-03-08T03:33:02;93218.94;;;1.97;100.00
40592;BME280;26301;42.832;23.918;2024-03-08T03:35:32;93212.75;;;1.85;100.00
40592;BME280;26301;42.832;23.918;2024-03-08T03:37:58;93204.13;;;1.49;100.00
40592;BME280;26301;42.832;23.918;2024-03-08T03:40:29;93183.69;;;1.28;100.00
40592;BME280;26301;42.832;23.918;2024-03-08T03:42:55;93181.88;;;1.22;100.00
40592;BME280;26301;42.832;23.918;2024-03-08T03:45:21;93203.09;;;1.14;100.00
40592;BME280;26301;42.832;23.918;2024-03-08T03:47:47;93208.72;;;1.09;100.00
40592;BME280;26301;42.832;23.918;2024-03-08T03:50:12;93184.34;;;1.00;100.00
40592;BME280;26301;42.832;23.918;2024-03-08T03:52:38;93203.09;;;1.14;100.00
40592;BME280;26301;42.832;23.918;2024-03-08T03:55:04;93234.31;;;1.37;100.00
40592;BME280;26301;42.832;23.918;2024-03-08T03:57:30;93235.09;;;1.53;100.00
40592;BME280;26301;42.832;23.918;2024-03-08T03:59:56;93214.13;;;1.51;100.00
40592;BME280;26301;42.832;23.918;2024-03-08T04:02:24;93210.47;;;1.39;100.00
40592;BME280;26301;42.832;23.918;2024-03-08T04:04:50;93198.97;;;1.28;100.00
40592;BME280;26301;42.832;23.918;2024-03-08T04:07:16;93214.38;;;1.41;100.00
40592;BME280;26301;42.832;23.918;2024-03-08T04:09:41;93218.78;;;1.47;100.00
40592;BME280;26301;42.832;23.918;2024-03-08T04:12:07;93249.94;;;1.49;100.00
40592;BME280;26301;42.832;23.918;2024-03-08T04:14:35;93218.53;;;1.27;100.00
40592;BME280;26301;42.832;23.918;2024-03-08T04:17:01;93225.56;;;1.40;100.00
40592;BME280;26301;42.832;23.918;2024-03-08T04:19:27;93255.22;;;1.63;100.00
40592;BME280;26301;42.832;23.918;2024-03-08T04:21:53;93239.41;;;1.37;100.00
40592;BME280;26301;42.832;23.918;2024-03-08T04:24:19;93258.56;;;1.48;100.00
40592;BME280;26301;42.832;23.918;2024-03-08T04:26:46;93274.78;;;1.62;100.00
40592;BME280;26301;42.832;23.918;2024-03-08T04:29:11;93272.13;;;1.70;100.00
40592;BME280;26301;42.832;23.918;2024-03-08T04:31:40;93270.72;;;1.68;100.00
40592;BME280;26301;42.832;23.918;2024-03-08T04:34:05;93281.59;;;1.76;100.00
40592;BME280;26301;42.832;23.918;2024-03-08T04:36:31;93256.22;;;1.68;100.00
40592;BME280;26301;42.832;23.918;2024-03-08T04:38:56;93260.44;;;1.76;100.00
40592;BME280;26301;42.832;23.918;2024-03-08T04:41:21;93279.25;;;1.90;100.00
40592;BME280;26301;42.832;23.918;2024-03-08T04:43:48;93277.28;;;1.92;100.00
40592;BME280;26301;42.832;23.918;2024-03-08T04:46:14;93286.94;;;1.96;100.00
40592;BME280;26301;42.832;23.918;2024-03-08T04:48:40;93264.72;;;1.90;100.00
40592;BME280;26301;42.832;23.918;2024-03-08T04:51:07;93257.09;;;1.90;100.00
40592;BME280;26301;42.832;23.918;2024-03-08T04:53:33;93284.47;;;2.03;100.00
40592;BME280;26301;42.832;23.918;2024-03-08T04:55:59;93252.72;;;1.84;100.00
40592;BME280;26301;42.832;23.918;2024-03-08T04:58:25;93266.78;;;2.01;100.00
40592;BME280;26301;42.832;23.918;2024-03-08T05:00:50;93252.78;;;1.91;100.00
40592;BME280;26301;42.832;23.918;2024-03-08T05:03:16;93269.97;;;2.03;100.00
40592;BME280;26301;42.832;23.918;2024-03-08T05:05:41;93302.06;;;2.19;100.00
40592;BME280;26301;42.832;23.918;2024-03-08T05:08:07;93284.44;;;2.18;100.00
40592;BME280;26301;42.832;23.918;2024-03-08T05:10:32;93301.00;;;2.28;100.00
40592;BME280;26301;42.832;23.918;2024-03-08T05:12:58;93268.81;;;2.06;100.00
40592;BME280;26301;42.832;23.918;2024-03-08T05:15:23;93308.06;;;2.26;100.00
40592;BME280;26301;42.832;23.918;2024-03-08T05:17:49;93308.50;;;2.15;100.00
40592;BME280;26301;42.832;23.918;2024-03-08T05:20:15;93292.03;;;1.96;100.00
40592;BME280;26301;42.832;23.918;2024-03-08T05:22:42;93289.50;;;1.96;100.00
40592;BME280;26301;42.832;23.918;2024-03-08T05:25:08;93294.06;;;1.86;100.00
40592;BME280;26301;42.832;23.918;2024-03-08T05:27:35;93323.13;;;2.06;100.00
40592;BME280;26301;42.832;23.918;2024-03-08T05:30:02;93297.50;;;1.93;100.00
40592;BME280;26301;42.832;23.918;2024-03-08T05:32:29;93304.25;;;1.86;100.00
40592;BME280;26301;42.832;23.918;2024-03-08T05:34:55;93316.41;;;1.84;100.00
40592;BME280;26301;42.832;23.918;2024-03-08T05:37:20;93317.09;;;1.78;100.00
40592;BME280;26301;42.832;23.918;2024-03-08T05:39:46;93329.47;;;1.81;100.00
40592;BME280;26301;42.832;23.918;2024-03-08T05:42:11;93307.88;;;1.62;100.00
40592;BME280;26301;42.832;23.918;2024-03-08T05:44:36;93305.94;;;1.49;100.00
40592;BME280;26301;42.832;23.918;2024-03-08T05:47:02;93322.38;;;1.62;100.00
40592;BME280;26301;42.832;23.918;2024-03-08T05:49:27;93355.13;;;1.79;100.00
40592;BME280;26301;42.832;23.918;2024-03-08T05:51:53;93337.38;;;1.71;100.00
40592;BME280;26301;42.832;23.918;2024-03-08T05:54:19;93336.66;;;1.77;100.00
40592;BME280;26301;42.832;23.918;2024-03-08T05:56:47;93355.91;;;1.80;100.00
40592;BME280;26301;42.832;23.918;2024-03-08T05:59:13;93320.59;;;1.62;100.00
40592;BME280;26301;42.832;23.918;2024-03-08T06:01:38;93351.06;;;1.70;100.00
40592;BME280;26301;42.832;23.918;2024-03-08T06:04:06;93355.91;;;1.65;100.00
40592;BME280;26301;42.832;23.918;2024-03-08T06:06:32;93356.94;;;1.71;100.00
40592;BME280;26301;42.832;23.918;2024-03-08T06:08:58;93329.13;;;1.40;100.00
40592;BME280;26301;42.832;23.918;2024-03-08T06:11:24;93358.28;;;1.52;100.00
40592;BME280;26301;42.832;23.918;2024-03-08T06:13:52;93361.44;;;1.39;100.00
40592;BME280;26301;42.832;23.918;2024-03-08T06:16:20;93339.78;;;1.20;100.00
40592;BME280;26301;42.832;23.918;2024-03-08T06:18:46;93357.75;;;1.42;100.00
40592;BME280;26301;42.832;23.918;2024-03-08T06:21:12;93311.88;;;1.12;100.00
40592;BME280;26301;42.832;23.918;2024-03-08T06:23:38;93375.56;;;1.56;100.00
40592;BME280;26301;42.832;23.918;2024-03-08T06:26:09;93374.41;;;1.59;100.00
40592;BME280;26301;42.832;23.918;2024-03-08T06:28:34;93321.75;;;1.30;100.00
40592;BME280;26301;42.832;23.918;2024-03-08T06:31:01;93343.84;;;1.44;100.00
40592;BME280;26301;42.832;23.918;2024-03-08T06:33:27;93344.91;;;1.50;100.00
40592;BME280;26301;42.832;23.918;2024-03-08T06:35:53;93345.69;;;1.50;100.00
40592;BME280;26301;42.832;23.918;2024-03-08T06:38:25;93360.81;;;1.67;100.00
40592;BME280;26301;42.832;23.918;2024-03-08T06:40:51;93370.66;;;1.70;100.00
40592;BME280;26301;42.832;23.918;2024-03-08T06:43:17;93375.41;;;1.73;100.00
40592;BME280;26301;42.832;23.918;2024-03-08T06:45:46;93365.84;;;1.75;100.00
40592;BME280;26301;42.832;23.918;2024-03-08T06:48:17;93343.88;;;1.59;100.00
40592;BME280;26301;42.832;23.918;2024-03-08T06:50:46;93356.53;;;1.67;100.00
40592;BME280;26301;42.832;23.918;2024-03-08T06:53:13;93362.47;;;1.74;100.00
40592;BME280;26301;42.832;23.918;2024-03-08T06:55:39;93370.75;;;1.76;100.00
40592;BME280;26301;42.832;23.918;2024-03-08T06:58:05;93370.41;;;1.79;100.00
40592;BME280;26301;42.832;23.918;2024-03-08T07:00:32;93371.53;;;1.77;100.00
40592;BME280;26301;42.832;23.918;2024-03-08T07:02:57;93384.09;;;1.93;100.00
40592;BME280;26301;42.832;23.918;2024-03-08T07:05:27;93391.41;;;1.96;100.00
40592;BME280;26301;42.832;23.918;2024-03-08T07:07:52;93379.00;;;1.93;100.00
40592;BME280;26301;42.832;23.918;2024-03-08T07:10:19;93387.78;;;1.91;100.00
40592;BME280;26301;42.832;23.918;2024-03-08T07:12:45;93387.16;;;1.89;100.00
40592;BME280;26301;42.832;23.918;2024-03-08T07:15:12;93365.03;;;1.74;100.00
40592;BME280;26301;42.832;23.918;2024-03-08T07:17:41;93393.66;;;2.06;100.00
40592;BME280;26301;42.832;23.918;2024-03-08T07:20:10;93377.06;;;1.95;100.00
40592;BME280;26301;42.832;23.918;2024-03-08T07:22:38;93400.34;;;2.07;100.00
40592;BME280;26301;42.832;23.918;2024-03-08T07:25:07;93397.56;;;2.02;100.00
40592;BME280;26301;42.832;23.918;2024-03-08T07:27:33;93362.84;;;1.86;100.00
40592;BME280;26301;42.832;23.918;2024-03-08T07:29:59;93369.53;;;1.87;100.00
40592;BME280;26301;42.832;23.918;2024-03-08T07:32:26;93386.91;;;1.98;100.00
40592;BME280;26301;42.832;23.918;2024-03-08T07:34:53;93398.16;;;2.04;100.00
40592;BME280;26301;42.832;23.918;2024-03-08T07:37:20;93386.13;;;1.98;100.00
40592;BME280;26301;42.832;23.918;2024-03-08T07:39:46;93398.50;;;2.01;100.00
40592;BME280;26301;42.832;23.918;2024-03-08T07:42:12;93390.50;;;2.04;100.00
40592;BME280;26301;42.832;23.918;2024-03-08T07:44:38;93328.50;;;1.67;100.00
40592;BME280;26301;42.832;23.918;2024-03-08T07:47:04;93367.41;;;1.91;100.00
40592;BME280;26301;42.832;23.918;2024-03-08T07:49:29;93405.28;;;2.09;100.00
40592;BME280;26301;42.832;23.918;2024-03-08T07:51:56;93411.78;;;2.11;100.00
40592;BME280;26301;42.832;23.918;2024-03-08T07:54:21;93371.38;;;1.93;100.00
40592;BME280;26301;42.832;23.918;2024-03-08T07:56:47;93377.59;;;1.91;100.00
40592;BME280;26301;42.832;23.918;2024-03-08T07:59:12;93380.22;;;1.97;100.00
40592;BME280;26301;42.832;23.918;2024-03-08T08:01:38;93407.13;;;2.15;100.00
40592;BME280;26301;42.832;23.918;2024-03-08T08:04:03;93405.09;;;2.10;100.00
40592;BME280;26301;42.832;23.918;2024-03-08T08:06:30;93408.09;;;2.14;100.00
40592;BME280;26301;42.832;23.918;2024-03-08T08:08:59;93414.31;;;2.26;100.00
40592;BME280;26301;42.832;23.918;2024-03-08T08:11:27;93414.03;;;2.36;100.00
40592;BME280;26301;42.832;23.918;2024-03-08T08:13:54;93410.09;;;2.33;100.00
40592;BME280;26301;42.832;23.918;2024-03-08T08:16:22;93407.97;;;2.37;100.00
40592;BME280;26301;42.832;23.918;2024-03-08T08:18:47;93402.00;;;2.29;100.00
40592;BME280;26301;42.832;23.918;2024-03-08T08:21:13;93382.75;;;2.27;100.00
40592;BME280;26301;42.832;23.918;2024-03-08T08:23:39;93409.44;;;2.46;100.00
40592;BME280;26301;42.832;23.918;2024-03-08T08:26:05;93388.44;;;2.44;100.00
40592;BME280;26301;42.832;23.918;2024-03-08T08:28:39;93408.91;;;2.50;100.00
40592;BME280;26301;42.832;23.918;2024-03-08T08:31:06;93394.06;;;2.39;100.00
40592;BME280;26301;42.832;23.918;2024-03-08T08:33:32;93386.91;;;2.49;100.00
40592;BME280;26301;42.832;23.918;2024-03-08T08:35:58;93415.97;;;2.70;100.00
40592;BME280;26301;42.832;23.918;2024-03-08T08:38:23;93408.56;;;2.54;100.00
40592;BME280;26301;42.832;23.918;2024-03-08T08:40:50;93407.94;;;2.51;99.62
40592;BME280;26301;42.832;23.918;2024-03-08T08:43:18;93409.16;;;2.56;97.15
40592;BME280;26301;42.832;23.918;2024-03-08T08:45:44;93409.63;;;2.44;98.34
40592;BME280;26301;42.832;23.918;2024-03-08T08:48:12;93396.94;;;2.51;96.99
40592;BME280;26301;42.832;23.918;2024-03-08T08:50:37;93404.88;;;2.56;98.35
40592;BME280;26301;42.832;23.918;2024-03-08T08:53:04;93386.34;;;2.33;100.00
40592;BME280;26301;42.832;23.918;2024-03-08T08:55:32;93396.34;;;2.34;99.05
40592;BME280;26301;42.832;23.918;2024-03-08T08:58:00;93408.16;;;2.35;97.88
40592;BME280;26301;42.832;23.918;2024-03-08T09:00:28;93408.31;;;2.34;99.11
40592;BME280;26301;42.832;23.918;2024-03-08T09:02:56;93412.28;;;2.36;99.63
40592;BME280;26301;42.832;23.918;2024-03-08T09:05:23;93385.72;;;2.31;99.33
40592;BME280;26301;42.832;23.918;2024-03-08T09:07:49;93394.81;;;2.55;94.23
40592;BME280;26301;42.832;23.918;2024-03-08T09:10:15;93406.34;;;2.65;95.64
40592;BME280;26301;42.832;23.918;2024-03-08T09:12:40;93421.34;;;2.75;95.05
40592;BME280;26301;42.832;23.918;2024-03-08T09:15:07;93413.78;;;2.67;96.31
40592;BME280;26301;42.832;23.918;2024-03-08T09:17:39;93405.56;;;2.65;99.01
40592;BME280;26301;42.832;23.918;2024-03-08T09:20:06;93409.94;;;2.71;99.49
40592;BME280;26301;42.832;23.918;2024-03-08T09:22:33;93402.44;;;2.69;100.00
40592;BME280;26301;42.832;23.918;2024-03-08T09:24:58;93416.50;;;2.80;100.00
40592;BME280;26301;42.832;23.918;2024-03-08T09:27:24;93397.03;;;2.58;100.00
40592;BME280;26301;42.832;23.918;2024-03-08T09:29:49;93395.97;;;2.52;100.00
40592;BME280;26301;42.832;23.918;2024-03-08T09:32:14;93384.38;;;2.49;100.00
40592;BME280;26301;42.832;23.918;2024-03-08T09:34:40;93419.88;;;2.66;100.00
40592;BME280;26301;42.832;23.918;2024-03-08T09:37:06;93397.63;;;2.60;100.00
40592;BME280;26301;42.832;23.918;2024-03-08T09:39:34;93399.56;;;2.58;100.00
40592;BME280;26301;42.832;23.918;2024-03-08T09:41:59;93426.91;;;2.64;100.00
40592;BME280;26301;42.832;23.918;2024-03-08T09:44:26;93418.72;;;2.68;100.00
40592;BME280;26301;42.832;23.918;2024-03-08T09:46:54;93398.94;;;2.56;100.00
40592;BME280;26301;42.832;23.918;2024-03-08T09:49:20;93405.47;;;2.43;100.00
40592;BME280;26301;42.832;23.918;2024-03-08T09:51:46;93418.03;;;2.60;100.00
40592;BME280;26301;42.832;23.918;2024-03-08T09:54:13;93418.97;;;2.73;100.00
40592;BME280;26301;42.832;23.918;2024-03-08T09:56:42;93419.31;;;2.70;100.00
40592;BME280;26301;42.832;23.918;2024-03-08T09:59:09;93427.78;;;2.71;100.00
40592;BME280;26301;42.832;23.918;2024-03-08T10:01:54;93393.69;;;2.57;100.00
40592;BME280;26301;42.832;23.918;2024-03-08T10:04:24;93402.13;;;2.58;100.00
40592;BME280;26301;42.832;23.918;2024-03-08T10:06:51;93424.72;;;2.61;100.00
40592;BME280;26301;42.832;23.918;2024-03-08T10:09:17;93388.34;;;2.37;100.00
40592;BME280;26301;42.832;23.918;2024-03-08T10:11:43;93416.22;;;2.54;100.00
40592;BME280;26301;42.832;23.918;2024-03-08T10:16:52;93415.38;;;2.68;100.00
40592;BME280;26301;42.832;23.918;2024-03-08T10:19:18;93425.34;;;2.63;100.00
40592;BME280;26301;42.832;23.918;2024-03-08T10:21:50;93411.69;;;2.56;100.00
40592;BME280;26301;42.832;23.918;2024-03-08T10:24:18;93390.81;;;2.45;100.00
40592;BME280;26301;42.832;23.918;2024-03-08T10:26:44;93430.25;;;2.64;100.00
40592;BME280;26301;42.832;23.918;2024-03-08T10:29:09;93376.28;;;2.46;100.00
40592;BME280;26301;42.832;23.918;2024-03-08T10:31:35;93393.34;;;2.45;100.00
40592;BME280;26301;42.832;23.918;2024-03-08T10:34:01;93402.31;;;2.56;100.00
40592;BME280;26301;42.832;23.918;2024-03-08T10:36:28;93409.16;;;2.56;100.00
40592;BME280;26301;42.832;23.918;2024-03-08T10:38:55;93392.31;;;2.40;100.00
40592;BME280;26301;42.832;23.918;2024-03-08T10:41:24;93398.19;;;2.40;100.00
40592;BME280;26301;42.832;23.918;2024-03-08T10:44:22;93419.88;;;2.66;100.00
40592;BME280;26301;42.832;23.918;2024-03-08T10:47:01;93425.13;;;2.64;100.00
40592;BME280;26301;42.832;23.918;2024-03-08T10:50:17;93416.28;;;2.60;100.00
40592;BME280;26301;42.832;23.918;2024-03-08T10:52:39;93408.19;;;2.57;100.00
40592;BME280;26301;42.832;23.918;2024-03-08T10:55:06;93396.59;;;2.54;100.00
40592;BME280;26301;42.832;23.918;2024-03-08T10:57:38;93380.44;;;2.47;100.00
40592;BME280;26301;42.832;23.918;2024-03-08T11:00:06;93393.84;;;2.56;100.00
40592;BME280;26301;42.832;23.918;2024-03-08T11:02:35;93388.16;;;2.54;100.00
40592;BME280;26301;42.832;23.918;2024-03-08T11:05:02;93399.88;;;2.69;100.00
40592;BME280;26301;42.832;23.918;2024-03-08T11:07:33;93404.00;;;2.70;100.00
40592;BME280;26301;42.832;23.918;2024-03-08T11:10:02;93398.56;;;2.73;100.00
40592;BME280;26301;42.832;23.918;2024-03-08T11:12:36;93400.56;;;2.78;100.00
40592;BME280;26301;42.832;23.918;2024-03-08T11:15:10;93401.16;;;2.95;100.00
40592;BME280;26301;42.832;23.918;2024-03-08T11:17:48;93410.06;;;2.84;100.00
40592;BME280;26301;42.832;23.918;2024-03-08T11:20:20;93395.09;;;2.81;100.00
40592;BME280;26301;42.832;23.918;2024-03-08T11:22:52;93391.31;;;2.92;100.00
40592;BME280;26301;42.832;23.918;2024-03-08T11:25:50;93398.28;;;3.05;100.00
40592;BME280;26301;42.832;23.918;2024-03-08T11:30:45;93377.13;;;2.89;100.00
40592;BME280;26301;42.832;23.918;2024-03-08T11:33:14;93349.00;;;2.83;98.95
40592;BME280;26301;42.832;23.918;2024-03-08T11:35:41;93394.38;;;3.09;100.00
40592;BME280;26301;42.832;23.918;2024-03-08T11:38:08;93375.06;;;3.00;100.00
40592;BME280;26301;42.832;23.918;2024-03-08T11:40:35;93401.44;;;3.28;100.00
40592;BME280;26301;42.832;23.918;2024-03-08T11:43:01;93374.72;;;3.31;99.66
40592;BME280;26301;42.832;23.918;2024-03-08T11:45:33;93387.66;;;3.51;96.66
40592;BME280;26301;42.832;23.918;2024-03-08T11:48:02;93389.69;;;3.62;94.04
40592;BME280;26301;42.832;23.918;2024-03-08T11:50:29;93365.56;;;3.64;92.15
40592;BME280;26301;42.832;23.918;2024-03-08T11:53:01;93349.59;;;3.56;92.49
40592;BME280;26301;42.832;23.918;2024-03-08T11:55:27;93363.03;;;3.71;92.01
40592;BME280;26301;42.832;23.918;2024-03-08T11:58:00;93383.72;;;3.76;93.19
40592;BME280;26301;42.832;23.918;2024-03-08T12:00:26;93382.00;;;3.90;92.57
40592;BME280;26301;42.832;23.918;2024-03-08T12:03:04;93378.28;;;3.93;89.42
40592;BME280;26301;42.832;23.918;2024-03-08T12:05:31;93337.47;;;3.64;91.33
40592;BME280;26301;42.832;23.918;2024-03-08T12:08:00;93352.47;;;3.81;91.60
40592;BME280;26301;42.832;23.918;2024-03-08T12:10:26;93345.38;;;3.76;89.82
40592;BME280;26301;42.832;23.918;2024-03-08T12:12:54;93377.91;;;3.96;89.28
40592;BME280;26301;42.832;23.918;2024-03-08T12:15:22;93355.59;;;3.76;89.70
40592;BME280;26301;42.832;23.918;2024-03-08T12:17:50;93380.22;;;3.84;89.87
40592;BME280;26301;42.832;23.918;2024-03-08T12:20:16;93389.41;;;3.78;90.15
40592;BME280;26301;42.832;23.918;2024-03-08T12:22:43;93381.00;;;3.56;91.48
40592;BME280;26301;42.832;23.918;2024-03-08T12:25:11;93384.19;;;3.58;91.75
40592;BME280;26301;42.832;23.918;2024-03-08T12:27:42;93358.66;;;3.37;90.35
40592;BME280;26301;42.832;23.918;2024-03-08T12:30:23;93380.59;;;3.53;91.25
40592;BME280;26301;42.832;23.918;2024-03-08T12:32:57;93373.69;;;3.47;92.18
40592;BME280;26301;42.832;23.918;2024-03-08T12:35:23;93377.34;;;3.65;90.45
40592;BME280;26301;42.832;23.918;2024-03-08T12:37:52;93344.84;;;3.53;89.95
40592;BME280;26301;42.832;23.918;2024-03-08T12:40:19;93347.03;;;3.56;90.29
40592;BME280;26301;42.832;23.918;2024-03-08T12:42:45;93376.09;;;3.83;90.50
40592;BME280;26301;42.832;23.918;2024-03-08T12:45:14;93373.06;;;3.73;90.92
40592;BME280;26301;42.832;23.918;2024-03-08T12:47:40;93373.88;;;3.73;90.30
40592;BME280;26301;42.832;23.918;2024-03-08T12:50:08;93376.03;;;3.76;89.46
40592;BME280;26301;42.832;23.918;2024-03-08T12:52:34;93368.16;;;3.71;88.21
40592;BME280;26301;42.832;23.918;2024-03-08T12:55:00;93337.56;;;3.50;91.36
40592;BME280;26301;42.832;23.918;2024-03-08T12:57:33;93356.94;;;3.72;92.36